createdAt,value
2023-03-10T00:00:23.145Z,-0.66
2023-03-10T00:02:53.321Z,-0.63
2023-03-10T00:05:23.047Z,-0.59
2023-03-10T00:07:53.008Z,-0.59
2023-03-10T00:10:23.197Z,-0.50
2023-03-10T00:12:52.666Z,-0.60
2023-03-10T00:15:23.498Z,-0.53
2023-03-10T00:17:55.860Z,-0.59
2023-03-10T00:20:26.575Z,-0.56
2023-03-10T00:22:55.799Z,-0.48
2023-03-10T00:25:25.608Z,-0.45
2023-03-10T00:27:55.343Z,-0.47
2023-03-10T00:30:25.133Z,-0.43
2023-03-10T00:32:57.945Z,-0.55
2023-03-10T00:35:28.119Z,-0.65
2023-03-10T00:37:57.784Z,-0.43
2023-03-10T00:40:26.171Z,-0.43
2023-03-10T00:42:54.630Z,-0.52
2023-03-10T00:45:23.036Z,-0.58
2023-03-10T00:47:51.420Z,-0.48
2023-03-10T00:50:19.836Z,-0.42
2023-03-10T00:52:48.260Z,-0.56
2023-03-10T00:55:16.770Z,-0.67
2023-03-10T00:57:45.081Z,-0.68
2023-03-10T01:00:17.012Z,-0.65
2023-03-10T01:02:44.950Z,-0.52
2023-03-10T01:05:15.268Z,-0.48
2023-03-10T01:07:45.174Z,-0.49
2023-03-10T01:10:15.189Z,-0.54
2023-03-10T01:12:45.239Z,-0.47
2023-03-10T01:15:15.017Z,-0.63
2023-03-10T01:17:44.864Z,-0.50
2023-03-10T01:20:15.309Z,-0.65
2023-03-10T01:22:45.372Z,-0.66
2023-03-10T01:25:16.197Z,-0.72
2023-03-10T01:27:46.197Z,-0.64
2023-03-10T01:30:16.364Z,-0.68
2023-03-10T01:32:46.288Z,-0.66
2023-03-10T01:35:16.454Z,-0.56
2023-03-10T01:37:46.245Z,-0.59
2023-03-10T01:40:18.844Z,-0.64
2023-03-10T01:42:48.909Z,-0.69
2023-03-10T01:45:19.039Z,-0.36
2023-03-10T01:47:48.291Z,-0.31
2023-03-10T01:50:20.014Z,-0.52
2023-03-10T01:52:58.461Z,-0.60
2023-03-10T01:55:39.900Z,-0.55
2023-03-10T01:58:11.237Z,-0.29
2023-03-10T02:00:41.901Z,-0.16
2023-03-10T02:03:34.919Z,-0.28
2023-03-10T02:06:16.984Z,-0.47
2023-03-10T02:08:58.416Z,-0.58
2023-03-10T02:11:29.541Z,-0.32
2023-03-10T02:14:04.750Z,-0.19
2023-03-10T02:16:35.397Z,-0.34
2023-03-10T02:19:26.973Z,-0.32
2023-03-10T02:22:10.965Z,-0.38
2023-03-10T02:25:09.134Z,-0.43
2023-03-10T02:27:40.984Z,-0.34
2023-03-10T02:30:29.409Z,-0.42
2023-03-10T02:33:12.089Z,-0.44
2023-03-10T02:35:42.262Z,-0.31
2023-03-10T02:38:12.566Z,-0.21
2023-03-10T02:40:47.325Z,-0.25
2023-03-10T02:43:35.309Z,-0.12
2023-03-10T02:46:08.417Z,-0.17
2023-03-10T02:48:40.022Z,-0.21
2023-03-10T02:51:24.532Z,-0.27
2023-03-10T02:53:54.022Z,-0.14
2023-03-10T02:56:24.576Z,-0.20
2023-03-10T02:58:52.790Z,-0.32
2023-03-10T03:01:21.482Z,-0.21
2023-03-10T03:03:49.528Z,-0.05
2023-03-10T03:06:18.116Z,-0.16
2023-03-10T03:08:46.288Z,-0.12
2023-03-10T03:11:16.154Z,-0.13
2023-03-10T03:13:46.125Z,-0.20
2023-03-10T03:16:15.360Z,-0.22
2023-03-10T03:18:43.025Z,-0.32
2023-03-10T03:21:17.370Z,-0.40
2023-03-10T03:23:48.394Z,-0.23
2023-03-10T03:26:26.962Z,-0.23
2023-03-10T03:28:57.030Z,-0.15
2023-03-10T03:31:26.412Z,-0.12
2023-03-10T03:33:54.684Z,-0.17
2023-03-10T03:36:24.412Z,-0.09
2023-03-10T03:38:54.233Z,-0.03
2023-03-10T03:41:23.981Z,-0.24
2023-03-10T03:43:53.760Z,-0.23
2023-03-10T03:46:23.693Z,-0.22
2023-03-10T03:48:53.441Z,-0.23
2023-03-10T03:51:23.251Z,-0.29
2023-03-10T03:53:53.285Z,-0.33
2023-03-10T03:56:23.159Z,-0.33
2023-03-10T03:58:52.997Z,-0.25
2023-03-10T04:01:22.745Z,-0.19
2023-03-10T04:03:52.844Z,-0.08
2023-03-10T04:06:23.320Z,-0.19
2023-03-10T04:08:52.592Z,-0.09
2023-03-10T04:11:22.311Z,-0.07
2023-03-10T04:13:51.967Z,-0.03
2023-03-10T04:16:21.819Z,-0.07
2023-03-10T04:18:52.212Z,-0.05
2023-03-10T04:21:21.469Z,0.06
2023-03-10T04:23:49.920Z,-0.11
2023-03-10T04:26:18.273Z,-0.20
2023-03-10T04:28:46.830Z,0.01
2023-03-10T04:31:19.172Z,-0.05
2023-03-10T04:33:47.035Z,-0.17
2023-03-10T04:36:15.574Z,0.02
2023-03-10T04:38:43.365Z,0.11
2023-03-10T04:41:13.012Z,-0.08
2023-03-10T04:43:42.674Z,0.06
2023-03-10T04:46:13.590Z,-0.07
2023-03-10T04:48:44.149Z,-0.11
2023-03-10T04:51:14.042Z,0.09
2023-03-10T04:53:43.887Z,-0.09
2023-03-10T04:56:14.781Z,-0.15
2023-03-10T04:58:44.102Z,0.01
2023-03-10T05:01:16.445Z,0.13
2023-03-10T05:03:46.345Z,0.24
2023-03-10T05:06:22.282Z,0.38
2023-03-10T05:08:50.268Z,0.14
2023-03-10T05:11:20.340Z,0.07
2023-03-10T05:13:51.148Z,0.01
2023-03-10T05:16:24.258Z,0.02
2023-03-10T05:18:53.537Z,0.05
2023-03-10T05:21:22.855Z,-0.04
2023-03-10T05:23:52.880Z,-0.07
2023-03-10T05:26:22.548Z,-0.05
2023-03-10T05:28:52.634Z,0.02
2023-03-10T05:31:26.340Z,0.10
2023-03-10T05:33:58.327Z,0.07
2023-03-10T05:36:26.492Z,-0.05
2023-03-10T05:38:56.166Z,-0.02
2023-03-10T05:41:26.066Z,0.00
2023-03-10T05:43:56.107Z,0.03
2023-03-10T05:46:27.437Z,0.07
2023-03-10T05:48:57.638Z,0.27
2023-03-10T05:51:27.966Z,0.23
2023-03-10T05:53:57.520Z,0.21
2023-03-10T05:56:27.288Z,0.21
2023-03-10T05:58:57.067Z,0.27
2023-03-10T06:01:27.151Z,0.31
2023-03-10T06:03:57.546Z,0.36
2023-03-10T06:06:27.844Z,0.39
2023-03-10T06:08:58.341Z,0.42
2023-03-10T06:11:28.513Z,0.46
2023-03-10T06:13:57.978Z,0.40
2023-03-10T06:16:27.938Z,0.55
2023-03-10T06:18:58.355Z,0.55
2023-03-10T06:21:29.577Z,0.52
2023-03-10T06:24:00.482Z,0.51
2023-03-10T06:26:30.503Z,0.46
2023-03-10T06:29:00.505Z,0.50
2023-03-10T06:31:30.483Z,0.52
2023-03-10T06:34:04.219Z,0.56
2023-03-10T06:36:32.734Z,0.52
2023-03-10T06:39:00.360Z,0.46
2023-03-10T06:41:29.204Z,0.68
2023-03-10T06:43:57.512Z,0.58
2023-03-10T06:46:26.174Z,0.64
2023-03-10T06:48:54.735Z,0.59
2023-03-10T06:51:23.875Z,0.58
2023-03-10T06:53:51.202Z,0.56
2023-03-10T06:56:22.963Z,0.60
2023-03-10T06:58:50.943Z,0.66
2023-03-10T07:01:34.013Z,0.68
2023-03-10T07:04:02.849Z,0.73
2023-03-10T07:06:33.060Z,0.78
2023-03-10T07:09:02.454Z,0.89
2023-03-10T07:11:33.362Z,0.89
2023-03-10T07:14:03.622Z,0.92
2023-03-10T07:16:32.977Z,0.97
2023-03-10T07:19:02.857Z,1.09
2023-03-10T07:21:32.875Z,1.06
2023-03-10T07:24:02.903Z,1.15
2023-03-10T07:26:33.079Z,1.15
2023-03-10T07:29:02.971Z,1.35
2023-03-10T07:31:34.737Z,1.30
2023-03-10T07:34:04.859Z,1.32
2023-03-10T07:36:34.731Z,1.42
2023-03-10T07:39:04.759Z,1.42
2023-03-10T07:41:34.259Z,1.46
2023-03-10T07:44:04.856Z,1.64
2023-03-10T07:46:34.344Z,1.91
2023-03-10T07:49:05.015Z,1.94
2023-03-10T07:51:34.239Z,2.10
2023-03-10T07:54:02.576Z,2.30
2023-03-10T07:56:31.111Z,2.46
2023-03-10T07:59:00.913Z,2.67
2023-03-10T08:01:30.922Z,2.77
2023-03-10T08:04:00.773Z,2.92
2023-03-10T08:06:32.765Z,3.10
2023-03-10T08:09:03.176Z,3.36
2023-03-10T08:11:33.230Z,3.40
2023-03-10T08:14:03.140Z,3.58
2023-03-10T08:16:33.076Z,3.66
2023-03-10T08:19:03.418Z,3.75
2023-03-10T08:21:32.861Z,3.80
2023-03-10T08:24:02.639Z,3.72
2023-03-10T08:26:32.431Z,3.75
2023-03-10T08:29:03.014Z,3.77
2023-03-10T08:31:32.508Z,3.88
2023-03-10T08:34:02.406Z,3.97
2023-03-10T08:36:32.105Z,3.98
2023-03-10T08:39:02.412Z,4.03
2023-03-10T08:41:39.852Z,4.26
2023-03-10T08:44:08.626Z,4.44
2023-03-10T08:46:38.098Z,4.67
2023-03-10T08:49:09.680Z,4.84
2023-03-10T08:51:39.866Z,5.08
2023-03-10T08:54:18.571Z,5.04
2023-03-10T08:56:47.155Z,5.20
2023-03-10T08:59:17.036Z,5.68
2023-03-10T09:01:47.577Z,6.01
2023-03-10T09:04:16.940Z,6.28
2023-03-10T09:06:47.049Z,6.80
2023-03-10T09:09:17.836Z,7.60
2023-03-10T09:11:47.276Z,8.21
2023-03-10T09:14:17.366Z,8.43
2023-03-10T09:16:47.544Z,8.51
2023-03-10T09:19:17.589Z,8.50
2023-03-10T09:21:47.843Z,8.52
2023-03-10T09:24:19.481Z,8.59
2023-03-10T09:26:49.555Z,8.65
2023-03-10T09:29:21.491Z,8.62
2023-03-10T09:31:50.790Z,8.66
2023-03-10T09:34:20.609Z,8.76
2023-03-10T09:36:50.633Z,8.94
2023-03-10T09:39:20.449Z,9.20
2023-03-10T09:42:36.455Z,9.31
2023-03-10T09:45:18.811Z,9.31
2023-03-10T09:48:17.564Z,9.23
2023-03-10T09:50:56.401Z,9.10
2023-03-10T09:54:13.039Z,9.17
2023-03-10T09:56:42.454Z,9.17
2023-03-10T09:59:31.799Z,9.28
2023-03-10T10:02:20.256Z,9.37
2023-03-10T10:05:06.460Z,9.39
2023-03-10T10:07:52.800Z,9.40
2023-03-10T10:10:36.616Z,9.54
2023-03-10T10:13:17.792Z,9.67
2023-03-10T10:16:32.049Z,9.66
2023-03-10T10:19:25.649Z,9.65
2023-03-10T10:22:22.949Z,9.58
2023-03-10T10:25:22.243Z,9.55
2023-03-10T10:28:02.129Z,9.63
2023-03-10T10:30:41.083Z,9.70
2023-03-10T10:33:15.315Z,9.74
2023-03-10T10:36:05.389Z,9.57
2023-03-10T10:38:36.175Z,9.58
2023-03-10T10:41:21.584Z,9.48
2023-03-10T10:43:54.806Z,9.53
2023-03-10T10:46:30.381Z,9.61
2023-03-10T10:49:23.786Z,9.48
2023-03-10T10:52:04.588Z,9.60
2023-03-10T10:54:43.735Z,9.40
2023-03-10T10:57:32.564Z,9.19
2023-03-10T11:00:37.041Z,9.09
2023-03-10T11:03:33.071Z,9.09
2023-03-10T11:06:16.413Z,9.11
2023-03-10T11:08:51.327Z,9.17
2023-03-10T11:11:55.289Z,9.11
2023-03-10T11:15:15.447Z,9.11
2023-03-10T11:18:03.972Z,8.87
2023-03-10T11:21:00.302Z,8.56
2023-03-10T11:23:58.576Z,8.61
2023-03-10T11:27:20.150Z,8.39
2023-03-10T11:30:26.652Z,8.23
2023-03-10T11:33:40.023Z,8.22
2023-03-10T11:36:55.747Z,8.01
2023-03-10T11:39:49.167Z,7.83
2023-03-10T11:42:34.089Z,7.75
2023-03-10T11:45:34.492Z,7.79
2023-03-10T11:49:08.690Z,7.87
2023-03-10T11:51:58.386Z,7.72
2023-03-10T11:54:48.412Z,7.66
2023-03-10T11:57:27.964Z,7.66
2023-03-10T12:00:12.709Z,7.45
2023-03-10T12:03:20.065Z,7.35
2023-03-10T12:06:00.492Z,7.22
2023-03-10T12:08:36.254Z,7.27
2023-03-10T12:11:21.619Z,7.25
2023-03-10T12:14:01.908Z,7.33
2023-03-10T12:16:42.018Z,7.31
2023-03-10T12:19:11.596Z,7.41
2023-03-10T12:21:41.392Z,7.38
2023-03-10T12:24:48.341Z,7.54
2023-03-10T12:27:16.778Z,8.13
2023-03-10T12:29:46.874Z,8.39
2023-03-10T12:32:48.588Z,8.27
2023-03-10T12:35:46.279Z,8.47
2023-03-10T12:38:49.197Z,8.71
2023-03-10T12:41:26.618Z,8.51
2023-03-10T12:44:27.417Z,8.06
2023-03-10T12:47:09.338Z,7.89
2023-03-10T12:49:49.808Z,7.75
2023-03-10T12:52:45.055Z,7.86
2023-03-10T12:55:27.811Z,8.01
2023-03-10T12:58:23.606Z,8.26
2023-03-10T13:01:06.536Z,8.70
2023-03-10T13:03:57.500Z,9.06
2023-03-10T13:06:40.864Z,9.23
2023-03-10T13:09:43.638Z,9.10
2023-03-10T13:12:53.345Z,8.66
2023-03-10T13:15:32.180Z,8.70
2023-03-10T13:18:23.857Z,8.32
2023-03-10T13:20:54.834Z,8.27
2023-03-10T13:23:36.856Z,8.50
2023-03-10T13:26:16.999Z,8.57
2023-03-10T13:29:04.098Z,8.48
2023-03-10T13:31:34.869Z,8.53
2023-03-10T13:34:22.584Z,8.54
2023-03-10T13:36:51.399Z,8.60
2023-03-10T13:39:28.003Z,8.60
2023-03-10T13:42:14.587Z,8.55
2023-03-10T13:44:45.112Z,8.71
2023-03-10T13:47:20.249Z,8.64
2023-03-10T13:49:58.069Z,8.34
2023-03-10T13:52:32.206Z,8.18
2023-03-10T13:55:29.575Z,8.01
2023-03-10T13:57:59.987Z,7.85
2023-03-10T14:00:31.169Z,7.55
2023-03-10T14:03:02.630Z,7.51
2023-03-10T14:05:49.194Z,7.41
2023-03-10T14:08:31.032Z,7.37
2023-03-10T14:11:39.051Z,7.34
2023-03-10T14:14:11.778Z,7.29
2023-03-10T14:17:09.699Z,7.21
2023-03-10T14:19:50.184Z,7.12
2023-03-10T14:22:43.363Z,7.10
2023-03-10T14:25:19.060Z,7.06
2023-03-10T14:30:46.058Z,7.11
2023-03-10T14:33:16.954Z,7.06
2023-03-10T14:35:47.319Z,7.21
2023-03-10T14:38:18.000Z,7.31
2023-03-10T14:40:54.352Z,7.17
2023-03-10T14:43:28.280Z,7.12
2023-03-10T14:46:01.847Z,7.23
2023-03-10T14:48:41.906Z,7.32
2023-03-10T14:51:32.648Z,7.39
2023-03-10T14:54:22.749Z,7.25
2023-03-10T14:56:59.336Z,7.16
2023-03-10T14:59:29.726Z,6.95
2023-03-10T15:02:17.283Z,6.74
2023-03-10T15:04:47.523Z,6.61
2023-03-10T15:07:18.012Z,6.46
2023-03-10T15:09:49.555Z,6.35
2023-03-10T15:12:22.776Z,6.27
2023-03-10T15:14:55.350Z,6.15
2023-03-10T15:17:25.390Z,6.13
2023-03-10T15:19:55.393Z,6.10
2023-03-10T15:22:25.384Z,6.05
2023-03-10T15:24:55.454Z,5.91
2023-03-10T15:27:25.482Z,5.86
2023-03-10T15:29:55.538Z,5.76
2023-03-10T15:32:25.662Z,5.72
2023-03-10T15:34:55.714Z,5.71
2023-03-10T15:37:25.803Z,5.70
2023-03-10T15:39:55.789Z,5.67
2023-03-10T15:42:25.823Z,5.53
2023-03-10T15:44:55.811Z,5.42
2023-03-10T15:47:25.862Z,5.39
2023-03-10T15:49:55.921Z,5.32
2023-03-10T15:52:26.278Z,5.24
2023-03-10T15:54:57.118Z,5.18
2023-03-10T15:57:27.161Z,5.19
2023-03-10T15:59:57.331Z,5.13
2023-03-10T16:02:27.373Z,5.05
2023-03-10T16:04:57.432Z,5.07
2023-03-10T16:07:27.470Z,5.09
2023-03-10T16:09:57.568Z,4.97
2023-03-10T16:12:28.500Z,4.92
2023-03-10T16:14:58.655Z,4.73
2023-03-10T16:17:29.700Z,4.61
2023-03-10T16:20:02.225Z,4.46
2023-03-10T16:22:31.094Z,4.48
2023-03-10T16:24:59.545Z,4.26
2023-03-10T16:27:28.016Z,4.05
2023-03-10T16:29:56.376Z,4.07
2023-03-10T16:32:24.877Z,4.01
2023-03-10T16:34:55.181Z,3.87
2023-03-10T16:37:29.557Z,3.75
2023-03-10T16:39:59.862Z,3.72
2023-03-10T16:42:35.717Z,3.64
2023-03-10T16:45:07.687Z,3.62
2023-03-10T16:47:38.031Z,3.71
2023-03-10T16:50:12.659Z,3.68
2023-03-10T16:52:43.216Z,3.66
2023-03-10T16:55:20.067Z,3.62
2023-03-10T16:57:50.138Z,3.66
2023-03-10T17:00:21.167Z,3.59
2023-03-10T17:02:49.698Z,3.50
2023-03-10T17:05:17.767Z,3.45
2023-03-10T17:07:55.164Z,3.46
2023-03-10T17:10:26.879Z,3.63
2023-03-10T17:12:58.035Z,3.55
2023-03-10T17:15:29.889Z,3.33
2023-03-10T17:18:00.338Z,3.17
2023-03-10T17:20:30.376Z,3.13
2023-03-10T17:23:00.484Z,3.10
2023-03-10T17:25:30.524Z,3.01
2023-03-10T17:28:01.443Z,2.83
2023-03-10T17:30:31.506Z,2.64
2023-03-10T17:33:01.607Z,2.51
2023-03-10T17:35:38.383Z,2.57
2023-03-10T17:38:08.505Z,2.59
2023-03-10T17:40:42.907Z,2.41
2023-03-10T17:43:32.463Z,2.41
2023-03-10T17:46:08.797Z,2.33
2023-03-10T17:48:39.087Z,2.22
2023-03-10T17:51:15.202Z,2.24
2023-03-10T17:53:46.979Z,2.33
2023-03-10T17:56:17.363Z,2.29
2023-03-10T17:58:45.405Z,2.20
2023-03-10T18:01:27.153Z,2.21
2023-03-10T18:04:00.438Z,2.18
2023-03-10T18:06:35.214Z,2.14
2023-03-10T18:09:12.620Z,2.09
2023-03-10T18:11:42.749Z,2.08
2023-03-10T18:14:12.846Z,2.03
2023-03-10T18:16:42.970Z,2.08
2023-03-10T18:19:17.637Z,1.93
2023-03-10T18:21:51.078Z,1.95
2023-03-10T18:24:19.213Z,1.89
2023-03-10T18:26:47.557Z,1.90
2023-03-10T18:29:16.599Z,1.84
2023-03-10T18:31:44.455Z,1.82
2023-03-10T18:34:13.619Z,1.88
2023-03-10T18:36:41.198Z,1.91
2023-03-10T18:39:11.727Z,1.95
2023-03-10T18:41:41.267Z,1.86
2023-03-10T18:44:09.433Z,1.81
2023-03-10T18:46:37.962Z,1.79
2023-03-10T18:49:06.584Z,1.85
2023-03-10T18:51:34.671Z,1.72
2023-03-10T18:54:04.827Z,1.64
2023-03-10T18:56:35.558Z,1.56
2023-03-10T18:59:05.691Z,1.49
2023-03-10T19:01:36.340Z,1.53
2023-03-10T19:04:05.659Z,1.48
2023-03-10T19:06:35.472Z,1.42
2023-03-10T19:09:08.572Z,1.38
2023-03-10T19:11:38.937Z,1.28
2023-03-10T19:14:08.598Z,1.29
2023-03-10T19:16:41.225Z,1.32
2023-03-10T19:19:10.620Z,1.37
2023-03-10T19:21:40.272Z,1.35
2023-03-10T19:24:11.245Z,1.47
2023-03-10T19:26:40.027Z,1.33
2023-03-10T19:29:10.149Z,1.16
2023-03-10T19:31:40.204Z,1.15
2023-03-10T19:34:10.289Z,1.16
2023-03-10T19:36:40.065Z,1.15
2023-03-10T19:39:10.003Z,1.15
2023-03-10T19:41:39.794Z,1.14
2023-03-10T19:44:10.849Z,1.14
2023-03-10T19:46:38.068Z,1.15
2023-03-10T19:49:08.642Z,1.12
2023-03-10T19:51:38.357Z,1.11
2023-03-10T19:54:08.242Z,0.97
2023-03-10T19:56:38.360Z,1.04
2023-03-10T19:59:07.994Z,1.02
2023-03-10T20:01:40.263Z,0.97
2023-03-10T20:04:11.140Z,0.94
2023-03-10T20:06:40.755Z,0.98
2023-03-10T20:09:10.671Z,0.97
2023-03-10T20:11:41.672Z,0.97
2023-03-10T20:14:09.557Z,0.99
2023-03-10T20:16:37.552Z,0.90
2023-03-10T20:19:05.716Z,1.03
2023-03-10T20:21:34.254Z,0.96
2023-03-10T20:24:02.689Z,0.94
2023-03-10T20:26:31.115Z,0.99
2023-03-10T20:29:01.690Z,0.94
2023-03-10T20:31:34.213Z,0.93
2023-03-10T20:34:07.239Z,0.83
2023-03-10T20:36:39.724Z,0.87
2023-03-10T20:39:10.039Z,0.92
2023-03-10T20:41:40.042Z,0.85
2023-03-10T20:44:14.187Z,0.86
2023-03-10T20:46:45.341Z,0.92
2023-03-10T20:49:15.446Z,0.85
2023-03-10T20:51:45.250Z,0.88
2023-03-10T20:54:15.147Z,0.91
2023-03-10T20:56:44.813Z,0.89
2023-03-10T20:59:14.551Z,0.83
2023-03-10T21:01:44.330Z,0.80
2023-03-10T21:04:12.779Z,0.76
2023-03-10T21:06:41.218Z,0.75
2023-03-10T21:09:09.598Z,0.79
2023-03-10T21:11:38.071Z,0.79
2023-03-10T21:14:07.101Z,0.81
2023-03-10T21:16:41.472Z,0.80
2023-03-10T21:19:10.816Z,0.77
2023-03-10T21:21:41.275Z,0.72
2023-03-10T21:24:11.899Z,0.73
2023-03-10T21:26:41.385Z,0.74
2023-03-10T21:29:11.540Z,0.75
2023-03-10T21:31:40.955Z,0.77
2023-03-10T21:34:10.762Z,0.74
2023-03-10T21:36:40.748Z,0.78
2023-03-10T21:39:11.250Z,0.78
2023-03-10T21:41:40.654Z,0.77
2023-03-10T21:44:11.835Z,0.76
2023-03-10T21:46:41.619Z,0.75
2023-03-10T21:49:11.919Z,0.71
2023-03-10T21:51:42.139Z,0.71
2023-03-10T21:54:12.194Z,0.72
2023-03-10T21:56:42.031Z,0.77
2023-03-10T21:59:11.880Z,0.76
2023-03-10T22:01:42.226Z,0.77
2023-03-10T22:04:12.945Z,0.68
2023-03-10T22:06:42.735Z,0.70
2023-03-10T22:09:12.808Z,0.67
2023-03-10T22:11:42.660Z,0.66
2023-03-10T22:14:12.888Z,0.64
2023-03-10T22:16:43.023Z,0.62
2023-03-10T22:19:12.746Z,0.62
2023-03-10T22:21:42.506Z,0.52
2023-03-10T22:24:13.940Z,0.52
2023-03-10T22:26:44.110Z,0.39
2023-03-10T22:29:12.630Z,0.41
2023-03-10T22:31:40.885Z,0.43
2023-03-10T22:34:09.313Z,0.46
2023-03-10T22:36:36.453Z,0.45
2023-03-10T22:39:03.869Z,0.48
2023-03-10T22:41:32.014Z,0.49
2023-03-10T22:44:00.457Z,0.56
2023-03-10T22:46:28.894Z,0.53
2023-03-10T22:48:57.315Z,0.45
2023-03-10T22:51:26.012Z,0.39
2023-03-10T22:53:54.214Z,0.35
2023-03-10T22:56:23.688Z,0.38
2023-03-10T22:58:51.194Z,0.45
2023-03-10T23:01:20.365Z,0.39
2023-03-10T23:03:49.024Z,0.40
2023-03-10T23:06:16.931Z,0.32
2023-03-10T23:08:46.748Z,0.28
2023-03-10T23:11:17.105Z,0.27
2023-03-10T23:13:44.937Z,0.23
2023-03-10T23:16:13.526Z,0.25
2023-03-10T23:18:41.636Z,0.15
2023-03-10T23:21:10.321Z,0.19
2023-03-10T23:23:39.991Z,0.15
2023-03-10T23:26:07.239Z,0.12
2023-03-10T23:28:35.633Z,0.17
2023-03-10T23:31:04.676Z,0.14
2023-03-10T23:33:32.896Z,0.28
2023-03-10T23:36:01.145Z,0.21
2023-03-10T23:38:29.473Z,0.20
2023-03-10T23:40:57.882Z,0.19
2023-03-10T23:43:26.491Z,0.22
2023-03-10T23:45:54.798Z,0.17
2023-03-10T23:48:24.819Z,0.10
2023-03-10T23:50:54.924Z,0.11
2023-03-10T23:53:25.641Z,0.07
2023-03-10T23:56:00.277Z,0.05
2023-03-10T23:58:29.860Z,0.12
